sensor_id;sensor_type;location;lat;lon;timestamp;pressure;altitude;pressure_sealevel;temperature;humidity
48968;BME280;46511;53.148;8.204;2023-01-31T00:01:49;101983.22;;;5.63;100.00
48968;BME280;46511;53.148;8.204;2023-01-31T00:04:20;101981.19;;;5.27;100.00
48968;BME280;46511;53.148;8.204;2023-01-31T00:06:51;101989.94;;;5.27;100.00
48968;BME280;46511;53.148;8.204;2023-01-31T00:09:23;101987.16;;;5.38;100.00
48968;BME280;46511;53.148;8.204;2023-01-31T00:11:55;101999.41;;;5.39;100.00
48968;BME280;46511;53.148;8.204;2023-01-31T00:14:26;101989.69;;;5.44;100.00
48968;BME280;46511;53.148;8.204;2023-01-31T00:16:57;101997.78;;;5.33;100.00
48968;BME280;46511;53.148;8.204;2023-01-31T00:19:28;101989.84;;;5.35;100.00
48968;BME280;46511;53.148;8.204;2023-01-31T00:22:00;101992.44;;;5.36;100.00
48968;BME280;46511;53.148;8.204;2023-01-31T00:24:31;101982.38;;;5.61;100.00
48968;BME280;46511;53.148;8.204;2023-01-31T00:27:02;101981.28;;;5.73;100.00
48968;BME280;46511;53.148;8.204;2023-01-31T00:29:33;101991.00;;;5.71;100.00
48968;BME280;46511;53.148;8.204;2023-01-31T00:32:07;101990.16;;;5.69;100.00
48968;BME280;46511;53.148;8.204;2023-01-31T00:34:39;101993.41;;;5.83;100.00
48968;BME280;46511;53.148;8.204;2023-01-31T00:37:10;101986.34;;;5.85;100.00
48968;BME280;46511;53.148;8.204;2023-01-31T00:39:41;101979.53;;;6.21;100.00
48968;BME280;46511;53.148;8.204;2023-01-31T00:42:13;101975.94;;;6.27;100.00
48968;BME280;46511;53.148;8.204;2023-01-31T00:44:44;101974.09;;;6.30;100.00
48968;BME280;46511;53.148;8.204;2023-01-31T00:47:15;101981.84;;;6.38;100.00
48968;BME280;46511;53.148;8.204;2023-01-31T00:49:46;101977.47;;;6.37;100.00
48968;BME280;46511;53.148;8.204;2023-01-31T00:52:18;101974.97;;;6.31;100.00
48968;BME280;46511;53.148;8.204;2023-01-31T00:54:49;101972.94;;;6.45;100.00
48968;BME280;46511;53.148;8.204;2023-01-31T00:57:20;101975.53;;;6.02;100.00
48968;BME280;46511;53.148;8.204;2023-01-31T00:59:51;101964.69;;;6.16;100.00
48968;BME280;46511;53.148;8.204;2023-01-31T01:02:23;101960.75;;;5.93;100.00
48968;BME280;46511;53.148;8.204;2023-01-31T01:04:54;101959.72;;;6.00;100.00
48968;BME280;46511;53.148;8.204;2023-01-31T01:07:25;101957.31;;;5.87;100.00
48968;BME280;46511;53.148;8.204;2023-01-31T01:09:57;101955.78;;;5.73;100.00
48968;BME280;46511;53.148;8.204;2023-01-31T01:12:28;101957.09;;;6.00;100.00
48968;BME280;46511;53.148;8.204;2023-01-31T01:14:59;101953.78;;;5.86;100.00
48968;BME280;46511;53.148;8.204;2023-01-31T01:17:30;101946.78;;;5.85;100.00
48968;BME280;46511;53.148;8.204;2023-01-31T01:20:02;101952.09;;;5.84;100.00
48968;BME280;46511;53.148;8.204;2023-01-31T01:22:33;101961.19;;;5.66;100.00
48968;BME280;46511;53.148;8.204;2023-01-31T01:25:06;101957.47;;;5.78;100.00
48968;BME280;46511;53.148;8.204;2023-01-31T01:27:38;101958.38;;;5.78;100.00
48968;BME280;46511;53.148;8.204;2023-01-31T01:30:10;101971.28;;;5.93;100.00
48968;BME280;46511;53.148;8.204;2023-01-31T01:32:41;101963.50;;;5.84;100.00
48968;BME280;46511;53.148;8.204;2023-01-31T01:35:13;101956.44;;;5.86;100.00
48968;BME280;46511;53.148;8.204;2023-01-31T01:37:44;101953.66;;;5.97;100.00
48968;BME280;46511;53.148;8.204;2023-01-31T01:40:16;101964.50;;;5.79;100.00
48968;BME280;46511;53.148;8.204;2023-01-31T01:42:47;101956.41;;;5.89;100.00
48968;BME280;46511;53.148;8.204;2023-01-31T01:45:18;101956.84;;;6.13;100.00
48968;BME280;46511;53.148;8.204;2023-01-31T01:47:51;101954.66;;;5.88;100.00
48968;BME280;46511;53.148;8.204;2023-01-31T01:53:37;101959.63;;;6.07;100.00
48968;BME280;46511;53.148;8.204;2023-01-31T01:56:02;101969.78;;;6.25;100.00
48968;BME280;46511;53.148;8.204;2023-01-31T01:58:40;101972.09;;;6.42;100.00
48968;BME280;46511;53.148;8.204;2023-01-31T02:01:16;101971.56;;;6.26;100.00
48968;BME280;46511;53.148;8.204;2023-01-31T02:03:48;101969.00;;;6.65;100.00
48968;BME280;46511;53.148;8.204;2023-01-31T02:06:17;101971.03;;;6.50;100.00
48968;BME280;46511;53.148;8.204;2023-01-31T02:08:49;101984.78;;;6.23;100.00
48968;BME280;46511;53.148;8.204;2023-01-31T02:11:25;101980.53;;;6.16;100.00
48968;BME280;46511;53.148;8.204;2023-01-31T02:14:02;101984.84;;;5.72;100.00
48968;BME280;46511;53.148;8.204;2023-01-31T02:16:38;101994.19;;;5.91;100.00
48968;BME280;46511;53.148;8.204;2023-01-31T02:19:44;102001.44;;;5.77;100.00
48968;BME280;46511;53.148;8.204;2023-01-31T02:22:32;102002.38;;;5.73;100.00
48968;BME280;46511;53.148;8.204;2023-01-31T02:30:33;101995.81;;;5.46;100.00
48968;BME280;46511;53.148;8.204;2023-01-31T02:42:35;101983.69;;;5.34;100.00
48968;BME280;46511;53.148;8.204;2023-01-31T02:45:30;101985.06;;;5.60;100.00
48968;BME280;46511;53.148;8.204;2023-01-31T02:48:16;101981.38;;;5.14;100.00
48968;BME280;46511;53.148;8.204;2023-01-31T02:51:01;101978.50;;;5.28;100.00
48968;BME280;46511;53.148;8.204;2023-01-31T02:53:39;101972.81;;;5.56;100.00
48968;BME280;46511;53.148;8.204;2023-01-31T02:56:17;101973.06;;;5.40;100.00
48968;BME280;46511;53.148;8.204;2023-01-31T03:01:32;101966.91;;;5.40;100.00
48968;BME280;46511;53.148;8.204;2023-01-31T03:04:07;101961.72;;;5.35;100.00
48968;BME280;46511;53.148;8.204;2023-01-31T03:06:45;101964.44;;;5.29;100.00
48968;BME280;46511;53.148;8.204;2023-01-31T03:09:32;101951.25;;;5.32;100.00
48968;BME280;46511;53.148;8.204;2023-01-31T03:20:52;101941.31;;;5.47;100.00
48968;BME280;46511;53.148;8.204;2023-01-31T03:23:33;101928.97;;;5.49;100.00
48968;BME280;46511;53.148;8.204;2023-01-31T03:26:08;101948.63;;;5.31;100.00
48968;BME280;46511;53.148;8.204;2023-01-31T03:28:40;101941.91;;;5.10;100.00
48968;BME280;46511;53.148;8.204;2023-01-31T03:31:21;101938.16;;;5.26;100.00
48968;BME280;46511;53.148;8.204;2023-01-31T03:33:57;101930.16;;;5.32;100.00
48968;BME280;46511;53.148;8.204;2023-01-31T03:36:39;101931.31;;;5.16;100.00
48968;BME280;46511;53.148;8.204;2023-01-31T03:39:35;101927.38;;;5.41;100.00
48968;BME280;46511;53.148;8.204;2023-01-31T03:42:16;101920.91;;;5.59;100.00
48968;BME280;46511;53.148;8.204;2023-01-31T03:44:59;101928.78;;;5.61;100.00
48968;BME280;46511;53.148;8.204;2023-01-31T03:47:40;101919.91;;;5.65;100.00
48968;BME280;46511;53.148;8.204;2023-01-31T03:50:19;101919.84;;;5.69;100.00
48968;BME280;46511;53.148;8.204;2023-01-31T03:52:55;101923.28;;;5.73;100.00
48968;BME280;46511;53.148;8.204;2023-01-31T03:55:32;101929.78;;;5.54;100.00
48968;BME280;46511;53.148;8.204;2023-01-31T03:58:06;101926.19;;;5.58;100.00
48968;BME280;46511;53.148;8.204;2023-01-31T04:00:41;101925.50;;;5.50;100.00
48968;BME280;46511;53.148;8.204;2023-01-31T04:03:19;101933.06;;;5.66;100.00
48968;BME280;46511;53.148;8.204;2023-01-31T04:05:48;101926.09;;;5.64;100.00
48968;BME280;46511;53.148;8.204;2023-01-31T04:08:19;101928.50;;;5.76;100.00
48968;BME280;46511;53.148;8.204;2023-01-31T04:10:51;101925.03;;;5.74;100.00
48968;BME280;46511;53.148;8.204;2023-01-31T04:13:22;101912.81;;;5.68;100.00
48968;BME280;46511;53.148;8.204;2023-01-31T04:15:53;101915.31;;;5.76;100.00
48968;BME280;46511;53.148;8.204;2023-01-31T04:18:25;101916.28;;;5.72;100.00
48968;BME280;46511;53.148;8.204;2023-01-31T04:20:56;101915.47;;;5.67;100.00
48968;BME280;46511;53.148;8.204;2023-01-31T04:23:27;101906.75;;;5.65;100.00
48968;BME280;46511;53.148;8.204;2023-01-31T04:25:58;101905.75;;;5.72;100.00
48968;BME280;46511;53.148;8.204;2023-01-31T04:28:30;101902.03;;;5.82;100.00
48968;BME280;46511;53.148;8.204;2023-01-31T04:31:01;101908.28;;;5.77;100.00
48968;BME280;46511;53.148;8.204;2023-01-31T04:33:32;101885.59;;;5.68;100.00
48968;BME280;46511;53.148;8.204;2023-01-31T04:36:04;101887.41;;;5.64;100.00
48968;BME280;46511;53.148;8.204;2023-01-31T04:38:35;101895.13;;;5.75;100.00
48968;BME280;46511;53.148;8.204;2023-01-31T04:41:06;101893.09;;;5.89;100.00
48968;BME280;46511;53.148;8.204;2023-01-31T04:43:38;101896.34;;;6.04;100.00
48968;BME280;46511;53.148;8.204;2023-01-31T04:46:09;101897.00;;;6.15;100.00
48968;BME280;46511;53.148;8.204;2023-01-31T04:48:40;101892.19;;;5.92;100.00
48968;BME280;46511;53.148;8.204;2023-01-31T04:51:12;101887.03;;;5.84;100.00
48968;BME280;46511;53.148;8.204;2023-01-31T04:53:43;101885.50;;;5.72;100.00
48968;BME280;46511;53.148;8.204;2023-01-31T04:56:15;101885.41;;;5.77;100.00
48968;BME280;46511;53.148;8.204;2023-01-31T04:58:46;101880.72;;;5.94;100.00
48968;BME280;46511;53.148;8.204;2023-01-31T05:01:18;101884.31;;;5.87;100.00
48968;BME280;46511;53.148;8.204;2023-01-31T05:03:49;101886.97;;;5.87;100.00
48968;BME280;46511;53.148;8.204;2023-01-31T05:06:21;101882.66;;;5.83;100.00
48968;BME280;46511;53.148;8.204;2023-01-31T05:08:52;101873.25;;;5.70;100.00
48968;BME280;46511;53.148;8.204;2023-01-31T05:11:24;101861.84;;;5.69;100.00
48968;BME280;46511;53.148;8.204;2023-01-31T05:13:55;101858.53;;;5.60;100.00
48968;BME280;46511;53.148;8.204;2023-01-31T05:16:26;101855.78;;;5.64;100.00
48968;BME280;46511;53.148;8.204;2023-01-31T05:18:58;101851.28;;;5.71;100.00
48968;BME280;46511;53.148;8.204;2023-01-31T05:21:29;101856.97;;;5.94;100.00
48968;BME280;46511;53.148;8.204;2023-01-31T05:24:21;101844.19;;;5.73;100.00
48968;BME280;46511;53.148;8.204;2023-01-31T05:26:53;101840.41;;;5.86;100.00
48968;BME280;46511;53.148;8.204;2023-01-31T05:29:28;101845.59;;;5.92;100.00
48968;BME280;46511;53.148;8.204;2023-01-31T05:32:01;101839.06;;;6.10;100.00
48968;BME280;46511;53.148;8.204;2023-01-31T05:34:33;101851.47;;;6.05;100.00
48968;BME280;46511;53.148;8.204;2023-01-31T05:37:05;101848.59;;;6.16;100.00
48968;BME280;46511;53.148;8.204;2023-01-31T05:39:36;101844.38;;;6.09;100.00
48968;BME280;46511;53.148;8.204;2023-01-31T05:42:08;101849.06;;;5.94;100.00
48968;BME280;46511;53.148;8.204;2023-01-31T05:44:39;101839.75;;;6.20;100.00
48968;BME280;46511;53.148;8.204;2023-01-31T05:47:10;101840.56;;;6.22;100.00
48968;BME280;46511;53.148;8.204;2023-01-31T05:49:41;101826.44;;;6.24;100.00
48968;BME280;46511;53.148;8.204;2023-01-31T05:52:13;101822.22;;;6.16;100.00
48968;BME280;46511;53.148;8.204;2023-01-31T05:54:44;101811.00;;;6.46;100.00
48968;BME280;46511;53.148;8.204;2023-01-31T05:57:15;101818.34;;;6.32;100.00
48968;BME280;46511;53.148;8.204;2023-01-31T05:59:48;101813.91;;;6.34;100.00
48968;BME280;46511;53.148;8.204;2023-01-31T06:02:19;101810.94;;;6.85;100.00
48968;BME280;46511;53.148;8.204;2023-01-31T06:04:50;101816.50;;;6.37;100.00
48968;BME280;46511;53.148;8.204;2023-01-31T06:07:21;101812.75;;;6.47;100.00
48968;BME280;46511;53.148;8.204;2023-01-31T06:09:53;101811.25;;;6.34;100.00
48968;BME280;46511;53.148;8.204;2023-01-31T06:12:25;101815.25;;;6.52;100.00
48968;BME280;46511;53.148;8.204;2023-01-31T06:14:56;101810.09;;;6.47;100.00
48968;BME280;46511;53.148;8.204;2023-01-31T06:17:22;101796.69;;;6.56;100.00
48968;BME280;46511;53.148;8.204;2023-01-31T06:19:54;101798.34;;;6.61;100.00
48968;BME280;46511;53.148;8.204;2023-01-31T06:22:25;101806.63;;;6.45;100.00
48968;BME280;46511;53.148;8.204;2023-01-31T06:24:56;101786.03;;;6.59;100.00
48968;BME280;46511;53.148;8.204;2023-01-31T06:27:30;101785.91;;;6.66;100.00
48968;BME280;46511;53.148;8.204;2023-01-31T06:30:02;101776.03;;;6.72;100.00
48968;BME280;46511;53.148;8.204;2023-01-31T06:32:33;101791.22;;;6.63;100.00
48968;BME280;46511;53.148;8.204;2023-01-31T06:35:04;101767.88;;;6.47;100.00
48968;BME280;46511;53.148;8.204;2023-01-31T06:37:36;101766.31;;;6.74;100.00
48968;BME280;46511;53.148;8.204;2023-01-31T06:40:07;101778.88;;;6.99;100.00
48968;BME280;46511;53.148;8.204;2023-01-31T06:42:39;101762.59;;;6.47;100.00
48968;BME280;46511;53.148;8.204;2023-01-31T06:45:10;101751.81;;;6.56;100.00
48968;BME280;46511;53.148;8.204;2023-01-31T06:47:43;101747.91;;;6.71;100.00
48968;BME280;46511;53.148;8.204;2023-01-31T06:50:15;101737.34;;;6.71;100.00
48968;BME280;46511;53.148;8.204;2023-01-31T06:52:46;101731.50;;;6.58;100.00
48968;BME280;46511;53.148;8.204;2023-01-31T06:55:17;101733.00;;;6.69;100.00
48968;BME280;46511;53.148;8.204;2023-01-31T06:57:49;101731.38;;;6.65;100.00
48968;BME280;46511;53.148;8.204;2023-01-31T07:00:20;101727.16;;;6.90;100.00
48968;BME280;46511;53.148;8.204;2023-01-31T07:02:54;101724.25;;;6.67;100.00
48968;BME280;46511;53.148;8.204;2023-01-31T07:05:26;101712.13;;;6.59;100.00
48968;BME280;46511;53.148;8.204;2023-01-31T07:07:58;101720.94;;;6.58;100.00
48968;BME280;46511;53.148;8.204;2023-01-31T07:10:30;101724.31;;;6.65;100.00
48968;BME280;46511;53.148;8.204;2023-01-31T07:13:01;101722.78;;;6.89;100.00
48968;BME280;46511;53.148;8.204;2023-01-31T07:15:32;101724.13;;;6.73;100.00
48968;BME280;46511;53.148;8.204;2023-01-31T07:18:03;101708.41;;;6.67;100.00
48968;BME280;46511;53.148;8.204;2023-01-31T07:20:36;101715.53;;;6.65;100.00
48968;BME280;46511;53.148;8.204;2023-01-31T07:23:07;101700.06;;;6.83;100.00
48968;BME280;46511;53.148;8.204;2023-01-31T07:25:39;101689.56;;;6.80;100.00
48968;BME280;46511;53.148;8.204;2023-01-31T07:28:10;101688.25;;;6.64;100.00
48968;BME280;46511;53.148;8.204;2023-01-31T07:30:42;101685.00;;;6.87;100.00
48968;BME280;46511;53.148;8.204;2023-01-31T07:33:13;101675.91;;;6.97;100.00
48968;BME280;46511;53.148;8.204;2023-01-31T07:35:44;101693.00;;;6.84;100.00
48968;BME280;46511;53.148;8.204;2023-01-31T07:38:16;101676.34;;;6.80;100.00
48968;BME280;46511;53.148;8.204;2023-01-31T07:40:47;101665.50;;;6.91;100.00
48968;BME280;46511;53.148;8.204;2023-01-31T07:43:18;101658.53;;;7.20;100.00
48968;BME280;46511;53.148;8.204;2023-01-31T07:45:50;101653.31;;;6.87;100.00
48968;BME280;46511;53.148;8.204;2023-01-31T07:48:22;101663.25;;;6.77;100.00
48968;BME280;46511;53.148;8.204;2023-01-31T07:50:57;101657.38;;;6.99;100.00
48968;BME280;46511;53.148;8.204;2023-01-31T07:53:32;101654.81;;;6.96;100.00
48968;BME280;46511;53.148;8.204;2023-01-31T07:56:06;101631.28;;;7.18;100.00
48968;BME280;46511;53.148;8.204;2023-01-31T07:58:42;101635.25;;;7.03;100.00
48968;BME280;46511;53.148;8.204;2023-01-31T08:01:19;101629.00;;;7.05;100.00
48968;BME280;46511;53.148;8.204;2023-01-31T08:04:12;101629.19;;;6.99;100.00
48968;BME280;46511;53.148;8.204;2023-01-31T08:06:44;101619.00;;;7.16;100.00
48968;BME280;46511;53.148;8.204;2023-01-31T08:09:16;101617.41;;;7.11;100.00
48968;BME280;46511;53.148;8.204;2023-01-31T08:11:48;101609.59;;;7.36;100.00
48968;BME280;46511;53.148;8.204;2023-01-31T08:14:19;101606.81;;;7.12;100.00
48968;BME280;46511;53.148;8.204;2023-01-31T08:16:55;101600.66;;;7.10;100.00
48968;BME280;46511;53.148;8.204;2023-01-31T08:19:26;101571.44;;;7.16;100.00
48968;BME280;46511;53.148;8.204;2023-01-31T08:21:57;101582.16;;;7.10;100.00
48968;BME280;46511;53.148;8.204;2023-01-31T08:24:29;101585.13;;;7.01;100.00
48968;BME280;46511;53.148;8.204;2023-01-31T08:27:01;101587.47;;;7.10;100.00
48968;BME280;46511;53.148;8.204;2023-01-31T08:29:33;101580.91;;;6.94;100.00
48968;BME280;46511;53.148;8.204;2023-01-31T08:32:04;101572.53;;;7.09;100.00
48968;BME280;46511;53.148;8.204;2023-01-31T08:34:36;101565.97;;;7.23;100.00
48968;BME280;46511;53.148;8.204;2023-01-31T08:37:07;101565.19;;;7.19;100.00
48968;BME280;46511;53.148;8.204;2023-01-31T08:39:39;101555.69;;;7.13;100.00
48968;BME280;46511;53.148;8.204;2023-01-31T08:42:10;101566.31;;;7.10;100.00
48968;BME280;46511;53.148;8.204;2023-01-31T08:44:42;101561.94;;;7.39;100.00
48968;BME280;46511;53.148;8.204;2023-01-31T08:47:13;101549.72;;;7.35;100.00
48968;BME280;46511;53.148;8.204;2023-01-31T08:49:45;101545.78;;;7.48;100.00
48968;BME280;46511;53.148;8.204;2023-01-31T08:52:16;101542.84;;;7.57;100.00
48968;BME280;46511;53.148;8.204;2023-01-31T08:54:47;101539.22;;;7.33;100.00
48968;BME280;46511;53.148;8.204;2023-01-31T08:57:18;101550.25;;;7.46;100.00
48968;BME280;46511;53.148;8.204;2023-01-31T08:59:50;101549.78;;;7.33;100.00
48968;BME280;46511;53.148;8.204;2023-01-31T09:02:22;101546.97;;;7.66;100.00
48968;BME280;46511;53.148;8.204;2023-01-31T09:04:53;101554.06;;;7.37;100.00
48968;BME280;46511;53.148;8.204;2023-01-31T09:07:24;101548.13;;;7.57;100.00
48968;BME280;46511;53.148;8.204;2023-01-31T09:09:55;101560.13;;;7.41;100.00
48968;BME280;46511;53.148;8.204;2023-01-31T09:12:27;101553.63;;;7.51;100.00
48968;BME280;46511;53.148;8.204;2023-01-31T09:14:58;101536.38;;;7.11;100.00
48968;BME280;46511;53.148;8.204;2023-01-31T09:17:29;101555.13;;;7.60;100.00
48968;BME280;46511;53.148;8.204;2023-01-31T09:20:01;101545.06;;;7.43;100.00
48968;BME280;46511;53.148;8.204;2023-01-31T09:22:36;101551.69;;;7.56;100.00
48968;BME280;46511;53.148;8.204;2023-01-31T09:25:08;101542.66;;;7.63;100.00
48968;BME280;46511;53.148;8.204;2023-01-31T09:27:39;101532.50;;;7.78;100.00
48968;BME280;46511;53.148;8.204;2023-01-31T09:30:11;101538.47;;;7.56;100.00
48968;BME280;46511;53.148;8.204;2023-01-31T09:32:42;101546.91;;;7.67;100.00
48968;BME280;46511;53.148;8.204;2023-01-31T09:35:15;101532.38;;;7.54;100.00
48968;BME280;46511;53.148;8.204;2023-01-31T09:37:49;101539.84;;;7.41;100.00
48968;BME280;46511;53.148;8.204;2023-01-31T09:40:20;101553.41;;;7.31;100.00
48968;BME280;46511;53.148;8.204;2023-01-31T09:42:56;101538.84;;;7.72;100.00
48968;BME280;46511;53.148;8.204;2023-01-31T09:45:32;101524.34;;;7.57;100.00
48968;BME280;46511;53.148;8.204;2023-01-31T09:48:06;101524.28;;;7.32;100.00
48968;BME280;46511;53.148;8.204;2023-01-31T09:50:42;101520.06;;;7.53;100.00
48968;BME280;46511;53.148;8.204;2023-01-31T09:53:19;101511.53;;;7.71;100.00
48968;BME280;46511;53.148;8.204;2023-01-31T09:55:55;101496.66;;;7.94;100.00
48968;BME280;46511;53.148;8.204;2023-01-31T09:58:35;101494.75;;;7.72;100.00
48968;BME280;46511;53.148;8.204;2023-01-31T10:01:44;101492.59;;;7.59;100.00
48968;BME280;46511;53.148;8.204;2023-01-31T10:04:37;101483.50;;;7.66;100.00
48968;BME280;46511;53.148;8.204;2023-01-31T10:07:23;101479.00;;;7.69;100.00
48968;BME280;46511;53.148;8.204;2023-01-31T10:10:02;101476.97;;;8.27;100.00
48968;BME280;46511;53.148;8.204;2023-01-31T10:12:46;101461.88;;;8.06;100.00
48968;BME280;46511;53.148;8.204;2023-01-31T10:15:25;101466.31;;;8.04;100.00
48968;BME280;46511;53.148;8.204;2023-01-31T10:18:25;101475.50;;;7.94;100.00
48968;BME280;46511;53.148;8.204;2023-01-31T10:23:38;101460.09;;;8.07;100.00
48968;BME280;46511;53.148;8.204;2023-01-31T10:28:57;101454.56;;;7.88;100.00
48968;BME280;46511;53.148;8.204;2023-01-31T10:31:37;101467.38;;;8.25;100.00
48968;BME280;46511;53.148;8.204;2023-01-31T10:34:12;101473.00;;;8.14;100.00
48968;BME280;46511;53.148;8.204;2023-01-31T10:39:32;101474.78;;;8.15;100.00
48968;BME280;46511;53.148;8.204;2023-01-31T10:42:13;101473.13;;;8.11;100.00
48968;BME280;46511;53.148;8.204;2023-01-31T10:44:52;101465.56;;;8.25;100.00
48968;BME280;46511;53.148;8.204;2023-01-31T10:47:28;101459.75;;;8.16;100.00
48968;BME280;46511;53.148;8.204;2023-01-31T10:50:12;101457.47;;;8.55;100.00
48968;BME280;46511;53.148;8.204;2023-01-31T10:56:03;101448.06;;;8.46;100.00
48968;BME280;46511;53.148;8.204;2023-01-31T10:58:37;101445.22;;;8.27;100.00
48968;BME280;46511;53.148;8.204;2023-01-31T11:01:09;101453.22;;;8.26;100.00
48968;BME280;46511;53.148;8.204;2023-01-31T11:03:47;101448.72;;;8.03;100.00
48968;BME280;46511;53.148;8.204;2023-01-31T11:06:21;101455.25;;;8.18;100.00
48968;BME280;46511;53.148;8.204;2023-01-31T11:08:54;101453.16;;;8.27;100.00
48968;BME280;46511;53.148;8.204;2023-01-31T11:11:28;101451.19;;;8.32;100.00
48968;BME280;46511;53.148;8.204;2023-01-31T11:14:00;101446.00;;;8.29;100.00
48968;BME280;46511;53.148;8.204;2023-01-31T11:16:36;101447.00;;;8.02;100.00
48968;BME280;46511;53.148;8.204;2023-01-31T11:19:14;101454.66;;;8.10;100.00
48968;BME280;46511;53.148;8.204;2023-01-31T11:21:51;101450.94;;;8.15;100.00
48968;BME280;46511;53.148;8.204;2023-01-31T11:24:24;101445.03;;;8.32;100.00
48968;BME280;46511;53.148;8.204;2023-01-31T11:27:01;101436.41;;;8.27;100.00
48968;BME280;46511;53.148;8.204;2023-01-31T11:29:37;101427.97;;;8.41;100.00
48968;BME280;46511;53.148;8.204;2023-01-31T11:32:13;101430.97;;;8.55;100.00
48968;BME280;46511;53.148;8.204;2023-01-31T11:34:57;101421.06;;;8.37;100.00
48968;BME280;46511;53.148;8.204;2023-01-31T11:37:34;101420.22;;;8.36;100.00
48968;BME280;46511;53.148;8.204;2023-01-31T11:40:25;101428.66;;;8.46;100.00
48968;BME280;46511;53.148;8.204;2023-01-31T11:43:01;101438.34;;;8.22;100.00
48968;BME280;46511;53.148;8.204;2023-01-31T11:45:33;101436.97;;;8.37;100.00
48968;BME280;46511;53.148;8.204;2023-01-31T11:48:08;101423.59;;;8.40;100.00
48968;BME280;46511;53.148;8.204;2023-01-31T11:50:54;101423.44;;;8.19;100.00
48968;BME280;46511;53.148;8.204;2023-01-31T11:53:30;101438.59;;;8.14;100.00
48968;BME280;46511;53.148;8.204;2023-01-31T11:56:19;101422.09;;;8.56;100.00
48968;BME280;46511;53.148;8.204;2023-01-31T11:58:55;101419.47;;;8.56;100.00
48968;BME280;46511;53.148;8.204;2023-01-31T12:01:32;101413.53;;;8.01;100.00
48968;BME280;46511;53.148;8.204;2023-01-31T12:04:16;101421.81;;;8.64;100.00
48968;BME280;46511;53.148;8.204;2023-01-31T12:06:54;101422.69;;;8.64;100.00
48968;BME280;46511;53.148;8.204;2023-01-31T12:09:29;101417.41;;;8.16;100.00
48968;BME280;46511;53.148;8.204;2023-01-31T12:15:01;101409.50;;;8.14;100.00
48968;BME280;46511;53.148;8.204;2023-01-31T12:17:36;101416.47;;;8.65;100.00
48968;BME280;46511;53.148;8.204;2023-01-31T12:31:18;101394.28;;;8.68;100.00
48968;BME280;46511;53.148;8.204;2023-01-31T12:34:16;101383.31;;;8.77;100.00
48968;BME280;46511;53.148;8.204;2023-01-31T12:37:28;101390.47;;;8.75;100.00
48968;BME280;46511;53.148;8.204;2023-01-31T13:06:18;101351.16;;;8.86;100.00
48968;BME280;46511;53.148;8.204;2023-01-31T13:09:03;101356.41;;;8.87;100.00
48968;BME280;46511;53.148;8.204;2023-01-31T13:11:50;101347.28;;;8.95;100.00
48968;BME280;46511;53.148;8.204;2023-01-31T13:14:26;101353.09;;;8.82;100.00
48968;BME280;46511;53.148;8.204;2023-01-31T13:17:03;101344.13;;;9.07;100.00
48968;BME280;46511;53.148;8.204;2023-01-31T13:19:40;101340.16;;;9.17;100.00
48968;BME280;46511;53.148;8.204;2023-01-31T13:22:21;101339.47;;;8.92;100.00
48968;BME280;46511;53.148;8.204;2023-01-31T13:27:48;101329.06;;;9.29;100.00
48968;BME280;46511;53.148;8.204;2023-01-31T13:30:41;101330.72;;;9.32;100.00
48968;BME280;46511;53.148;8.204;2023-01-31T13:33:25;101332.59;;;9.28;100.00
48968;BME280;46511;53.148;8.204;2023-01-31T13:39:07;101325.09;;;9.39;100.00
48968;BME280;46511;53.148;8.204;2023-01-31T13:41:46;101311.59;;;9.03;100.00
48968;BME280;46511;53.148;8.204;2023-01-31T13:44:17;101313.53;;;9.40;100.00
48968;BME280;46511;53.148;8.204;2023-01-31T13:46:52;101316.63;;;9.09;100.00
48968;BME280;46511;53.148;8.204;2023-01-31T13:49:30;101331.00;;;9.04;100.00
48968;BME280;46511;53.148;8.204;2023-01-31T13:52:11;101332.03;;;9.00;100.00
48968;BME280;46511;53.148;8.204;2023-01-31T13:54:51;101336.00;;;9.52;100.00
48968;BME280;46511;53.148;8.204;2023-01-31T13:57:42;101325.25;;;9.55;100.00
48968;BME280;46511;53.148;8.204;2023-01-31T14:00:36;101327.91;;;9.35;100.00
48968;BME280;46511;53.148;8.204;2023-01-31T14:03:11;101330.88;;;9.27;100.00
48968;BME280;46511;53.148;8.204;2023-01-31T14:05:58;101332.50;;;9.31;100.00
48968;BME280;46511;53.148;8.204;2023-01-31T14:08:55;101338.88;;;9.48;100.00
48968;BME280;46511;53.148;8.204;2023-01-31T14:16:38;101346.88;;;9.46;100.00
48968;BME280;46511;53.148;8.204;2023-01-31T14:20:03;101333.69;;;9.44;100.00
48968;BME280;46511;53.148;8.204;2023-01-31T14:22:14;101329.59;;;9.58;100.00
48968;BME280;46511;53.148;8.204;2023-01-31T14:30:29;101340.19;;;9.58;100.00
48968;BME280;46511;53.148;8.204;2023-01-31T14:33:18;101348.50;;;9.28;100.00
48968;BME280;46511;53.148;8.204;2023-01-31T14:36:03;101338.59;;;9.33;100.00
48968;BME280;46511;53.148;8.204;2023-01-31T14:38:56;101328.66;;;9.38;100.00
48968;BME280;46511;53.148;8.204;2023-01-31T14:47:36;101343.72;;;9.97;100.00
48968;BME280;46511;53.148;8.204;2023-01-31T14:58:56;101337.25;;;10.03;100.00
48968;BME280;46511;53.148;8.204;2023-01-31T15:01:32;101345.56;;;9.77;100.00
48968;BME280;46511;53.148;8.204;2023-01-31T15:04:15;101324.84;;;10.24;100.00
48968;BME280;46511;53.148;8.204;2023-01-31T15:06:52;101328.06;;;9.91;100.00
48968;BME280;46511;53.148;8.204;2023-01-31T15:09:33;101330.47;;;10.16;100.00
48968;BME280;46511;53.148;8.204;2023-01-31T15:12:50;101344.44;;;10.01;100.00
48968;BME280;46511;53.148;8.204;2023-01-31T15:15:33;101344.81;;;9.73;100.00
48968;BME280;46511;53.148;8.204;2023-01-31T15:18:26;101344.94;;;10.09;100.00
48968;BME280;46511;53.148;8.204;2023-01-31T15:21:00;101344.25;;;10.06;100.00
48968;BME280;46511;53.148;8.204;2023-01-31T15:23:36;101350.91;;;9.95;100.00
48968;BME280;46511;53.148;8.204;2023-01-31T15:26:12;101355.16;;;9.79;100.00